sensor_id;sensor_type;location;lat;lon;timestamp;P1;durP1;ratioP1;P2;durP2;ratioP2
81195;SDS011;70671;43.888;-79.394;2023-07-31T00:00:03;3.13;;;1.23;;
81195;SDS011;70671;43.888;-79.394;2023-07-31T00:02:30;2.85;;;1.20;;
81195;SDS011;70671;43.888;-79.394;2023-07-31T00:04:56;10.77;;;2.38;;
81195;SDS011;70671;43.888;-79.394;2023-07-31T00:07:22;5.25;;;1.77;;
81195;SDS011;70671;43.888;-79.394;2023-07-31T00:09:48;5.65;;;1.85;;
81195;SDS011;70671;43.888;-79.394;2023-07-31T00:12:14;4.65;;;1.90;;
81195;SDS011;70671;43.888;-79.394;2023-07-31T00:14:39;4.40;;;1.63;;
81195;SDS011;70671;43.888;-79.394;2023-07-31T00:17:05;4.03;;;1.60;;
81195;SDS011;70671;43.888;-79.394;2023-07-31T00:19:31;5.80;;;2.05;;
81195;SDS011;70671;43.888;-79.394;2023-07-31T00:21:57;3.72;;;1.48;;
81195;SDS011;70671;43.888;-79.394;2023-07-31T00:24:23;5.32;;;1.90;;
81195;SDS011;70671;43.888;-79.394;2023-07-31T00:26:49;7.25;;;1.90;;
81195;SDS011;70671;43.888;-79.394;2023-07-31T00:29:15;4.00;;;1.80;;
81195;SDS011;70671;43.888;-79.394;2023-07-31T00:31:41;3.50;;;1.45;;
81195;SDS011;70671;43.888;-79.394;2023-07-31T00:34:07;3.53;;;1.67;;
81195;SDS011;70671;43.888;-79.394;2023-07-31T00:36:33;4.13;;;1.45;;
81195;SDS011;70671;43.888;-79.394;2023-07-31T00:38:59;3.85;;;1.20;;
81195;SDS011;70671;43.888;-79.394;2023-07-31T00:41:25;3.00;;;1.48;;
81195;SDS011;70671;43.888;-79.394;2023-07-31T00:43:51;4.50;;;1.80;;
81195;SDS011;70671;43.888;-79.394;2023-07-31T00:46:17;2.88;;;1.50;;
81195;SDS011;70671;43.888;-79.394;2023-07-31T00:48:43;3.97;;;1.50;;
81195;SDS011;70671;43.888;-79.394;2023-07-31T00:51:09;3.50;;;1.73;;
81195;SDS011;70671;43.888;-79.394;2023-07-31T00:53:35;4.57;;;1.83;;
81195;SDS011;70671;43.888;-79.394;2023-07-31T00:56:02;3.45;;;1.40;;
81195;SDS011;70671;43.888;-79.394;2023-07-31T00:58:29;4.90;;;1.23;;
81195;SDS011;70671;43.888;-79.394;2023-07-31T01:00:56;3.72;;;1.73;;
81195;SDS011;70671;43.888;-79.394;2023-07-31T01:03:24;3.05;;;1.40;;
81195;SDS011;70671;43.888;-79.394;2023-07-31T01:13:55;5.00;;;1.77;;
81195;SDS011;70671;43.888;-79.394;2023-07-31T01:16:22;4.00;;;1.40;;
81195;SDS011;70671;43.888;-79.394;2023-07-31T01:18:48;4.22;;;1.70;;
81195;SDS011;70671;43.888;-79.394;2023-07-31T01:26:43;4.15;;;1.50;;
81195;SDS011;70671;43.888;-79.394;2023-07-31T01:29:16;4.47;;;1.63;;
81195;SDS011;70671;43.888;-79.394;2023-07-31T01:31:48;4.30;;;1.30;;
81195;SDS011;70671;43.888;-79.394;2023-07-31T01:34:17;4.10;;;1.52;;
81195;SDS011;70671;43.888;-79.394;2023-07-31T01:36:44;5.75;;;1.80;;
81195;SDS011;70671;43.888;-79.394;2023-07-31T01:39:10;3.22;;;1.42;;
81195;SDS011;70671;43.888;-79.394;2023-07-31T01:41:36;3.63;;;1.55;;
81195;SDS011;70671;43.888;-79.394;2023-07-31T01:44:02;3.08;;;1.33;;
81195;SDS011;70671;43.888;-79.394;2023-07-31T01:46:28;3.30;;;1.50;;
81195;SDS011;70671;43.888;-79.394;2023-07-31T01:48:54;4.53;;;1.52;;
81195;SDS011;70671;43.888;-79.394;2023-07-31T01:51:20;3.50;;;1.60;;
81195;SDS011;70671;43.888;-79.394;2023-07-31T01:53:47;6.10;;;2.33;;
81195;SDS011;70671;43.888;-79.394;2023-07-31T01:56:13;4.80;;;1.85;;
81195;SDS011;70671;43.888;-79.394;2023-07-31T01:58:39;3.22;;;1.38;;
81195;SDS011;70671;43.888;-79.394;2023-07-31T02:01:05;5.05;;;1.58;;
81195;SDS011;70671;43.888;-79.394;2023-07-31T02:03:31;4.20;;;1.63;;
81195;SDS011;70671;43.888;-79.394;2023-07-31T02:05:57;4.45;;;1.58;;
81195;SDS011;70671;43.888;-79.394;2023-07-31T02:08:23;4.88;;;2.00;;
81195;SDS011;70671;43.888;-79.394;2023-07-31T02:10:49;4.50;;;1.48;;
81195;SDS011;70671;43.888;-79.394;2023-07-31T02:13:15;3.72;;;1.65;;
81195;SDS011;70671;43.888;-79.394;2023-07-31T02:15:41;7.18;;;1.80;;
81195;SDS011;70671;43.888;-79.394;2023-07-31T02:18:07;4.88;;;1.73;;
81195;SDS011;70671;43.888;-79.394;2023-07-31T02:20:33;4.40;;;1.55;;
81195;SDS011;70671;43.888;-79.394;2023-07-31T02:23:00;4.68;;;1.92;;
81195;SDS011;70671;43.888;-79.394;2023-07-31T02:25:26;6.32;;;1.90;;
81195;SDS011;70671;43.888;-79.394;2023-07-31T02:27:52;5.68;;;1.60;;
81195;SDS011;70671;43.888;-79.394;2023-07-31T02:30:18;5.05;;;1.83;;
81195;SDS011;70671;43.888;-79.394;2023-07-31T02:32:44;5.32;;;1.80;;
81195;SDS011;70671;43.888;-79.394;2023-07-31T02:35:10;5.80;;;1.75;;
81195;SDS011;70671;43.888;-79.394;2023-07-31T02:37:40;5.32;;;2.10;;
81195;SDS011;70671;43.888;-79.394;2023-07-31T02:40:09;4.75;;;1.73;;
81195;SDS011;70671;43.888;-79.394;2023-07-31T02:42:35;4.80;;;1.83;;
81195;SDS011;70671;43.888;-79.394;2023-07-31T02:45:01;4.80;;;2.08;;
81195;SDS011;70671;43.888;-79.394;2023-07-31T02:47:28;5.13;;;1.90;;
81195;SDS011;70671;43.888;-79.394;2023-07-31T02:49:53;5.13;;;2.05;;
81195;SDS011;70671;43.888;-79.394;2023-07-31T02:52:21;4.72;;;1.80;;
81195;SDS011;70671;43.888;-79.394;2023-07-31T02:54:47;5.13;;;1.83;;
81195;SDS011;70671;43.888;-79.394;2023-07-31T02:57:13;5.78;;;2.05;;
81195;SDS011;70671;43.888;-79.394;2023-07-31T02:59:39;5.05;;;1.60;;
81195;SDS011;70671;43.888;-79.394;2023-07-31T03:02:05;5.65;;;1.75;;
81195;SDS011;70671;43.888;-79.394;2023-07-31T03:04:31;6.30;;;1.98;;
81195;SDS011;70671;43.888;-79.394;2023-07-31T03:06:57;5.38;;;1.63;;
81195;SDS011;70671;43.888;-79.394;2023-07-31T03:09:22;6.13;;;1.90;;
81195;SDS011;70671;43.888;-79.394;2023-07-31T03:11:48;5.60;;;2.05;;
81195;SDS011;70671;43.888;-79.394;2023-07-31T03:14:14;5.90;;;1.80;;
81195;SDS011;70671;43.888;-79.394;2023-07-31T03:16:40;2.55;;;1.40;;
81195;SDS011;70671;43.888;-79.394;2023-07-31T03:19:06;4.88;;;1.52;;
81195;SDS011;70671;43.888;-79.394;2023-07-31T03:21:32;4.32;;;1.42;;
81195;SDS011;70671;43.888;-79.394;2023-07-31T03:23:58;4.05;;;1.40;;
81195;SDS011;70671;43.888;-79.394;2023-07-31T03:26:24;4.82;;;1.95;;
81195;SDS011;70671;43.888;-79.394;2023-07-31T03:28:50;3.15;;;1.23;;
81195;SDS011;70671;43.888;-79.394;2023-07-31T03:31:16;5.60;;;1.75;;
81195;SDS011;70671;43.888;-79.394;2023-07-31T03:33:42;4.35;;;1.50;;
81195;SDS011;70671;43.888;-79.394;2023-07-31T03:36:08;3.33;;;1.50;;
81195;SDS011;70671;43.888;-79.394;2023-07-31T03:38:34;6.05;;;1.65;;
81195;SDS011;70671;43.888;-79.394;2023-07-31T03:41:00;5.43;;;1.77;;
81195;SDS011;70671;43.888;-79.394;2023-07-31T03:43:27;5.70;;;1.98;;
81195;SDS011;70671;43.888;-79.394;2023-07-31T03:45:53;4.07;;;1.60;;
81195;SDS011;70671;43.888;-79.394;2023-07-31T03:48:19;3.92;;;1.35;;
81195;SDS011;70671;43.888;-79.394;2023-07-31T03:50:45;6.25;;;1.75;;
81195;SDS011;70671;43.888;-79.394;2023-07-31T03:53:11;3.85;;;1.50;;
81195;SDS011;70671;43.888;-79.394;2023-07-31T03:55:37;6.90;;;1.70;;
81195;SDS011;70671;43.888;-79.394;2023-07-31T03:58:03;6.30;;;1.50;;
81195;SDS011;70671;43.888;-79.394;2023-07-31T04:00:29;6.13;;;1.80;;
81195;SDS011;70671;43.888;-79.394;2023-07-31T04:02:55;3.80;;;1.50;;
81195;SDS011;70671;43.888;-79.394;2023-07-31T04:05:21;5.05;;;1.75;;
81195;SDS011;70671;43.888;-79.394;2023-07-31T04:07:47;3.85;;;1.80;;
81195;SDS011;70671;43.888;-79.394;2023-07-31T04:10:13;3.25;;;1.52;;
81195;SDS011;70671;43.888;-79.394;2023-07-31T04:12:39;3.78;;;1.42;;
81195;SDS011;70671;43.888;-79.394;2023-07-31T04:15:05;4.95;;;1.60;;
81195;SDS011;70671;43.888;-79.394;2023-07-31T04:17:31;5.63;;;1.90;;
81195;SDS011;70671;43.888;-79.394;2023-07-31T04:19:57;3.35;;;1.50;;
81195;SDS011;70671;43.888;-79.394;2023-07-31T04:22:23;4.90;;;1.52;;
81195;SDS011;70671;43.888;-79.394;2023-07-31T04:24:49;4.90;;;1.60;;
81195;SDS011;70671;43.888;-79.394;2023-07-31T04:27:15;5.32;;;1.55;;
81195;SDS011;70671;43.888;-79.394;2023-07-31T04:29:41;4.63;;;1.25;;
81195;SDS011;70671;43.888;-79.394;2023-07-31T04:32:08;4.10;;;1.40;;
81195;SDS011;70671;43.888;-79.394;2023-07-31T04:34:34;4.03;;;1.70;;
81195;SDS011;70671;43.888;-79.394;2023-07-31T04:37:00;3.55;;;1.52;;
81195;SDS011;70671;43.888;-79.394;2023-07-31T04:39:26;5.00;;;1.50;;
81195;SDS011;70671;43.888;-79.394;2023-07-31T04:41:52;3.03;;;1.48;;
81195;SDS011;70671;43.888;-79.394;2023-07-31T04:44:18;3.92;;;1.75;;
81195;SDS011;70671;43.888;-79.394;2023-07-31T04:46:44;4.00;;;1.50;;
81195;SDS011;70671;43.888;-79.394;2023-07-31T04:49:10;5.60;;;1.60;;
81195;SDS011;70671;43.888;-79.394;2023-07-31T04:51:36;5.05;;;1.48;;
81195;SDS011;70671;43.888;-79.394;2023-07-31T04:54:02;4.57;;;1.52;;
81195;SDS011;70671;43.888;-79.394;2023-07-31T04:56:28;3.33;;;1.50;;
81195;SDS011;70671;43.888;-79.394;2023-07-31T04:58:54;3.42;;;1.30;;
81195;SDS011;70671;43.888;-79.394;2023-07-31T05:01:20;6.28;;;1.60;;
81195;SDS011;70671;43.888;-79.394;2023-07-31T05:03:46;3.75;;;1.65;;
81195;SDS011;70671;43.888;-79.394;2023-07-31T05:06:12;4.18;;;1.67;;
81195;SDS011;70671;43.888;-79.394;2023-07-31T05:08:40;6.60;;;1.65;;
81195;SDS011;70671;43.888;-79.394;2023-07-31T05:11:06;3.22;;;1.33;;
81195;SDS011;70671;43.888;-79.394;2023-07-31T05:13:32;4.30;;;1.70;;
81195;SDS011;70671;43.888;-79.394;2023-07-31T05:15:58;3.83;;;1.70;;
81195;SDS011;70671;43.888;-79.394;2023-07-31T05:18:24;3.17;;;1.40;;
81195;SDS011;70671;43.888;-79.394;2023-07-31T05:20:50;3.47;;;1.50;;
81195;SDS011;70671;43.888;-79.394;2023-07-31T05:23:16;5.05;;;1.50;;
81195;SDS011;70671;43.888;-79.394;2023-07-31T05:25:42;3.40;;;1.40;;
81195;SDS011;70671;43.888;-79.394;2023-07-31T05:28:08;5.35;;;1.95;;
81195;SDS011;70671;43.888;-79.394;2023-07-31T05:30:34;3.92;;;1.45;;
81195;SDS011;70671;43.888;-79.394;2023-07-31T05:33:00;4.53;;;1.83;;
81195;SDS011;70671;43.888;-79.394;2023-07-31T05:35:26;6.65;;;2.80;;
81195;SDS011;70671;43.888;-79.394;2023-07-31T05:37:52;6.72;;;1.73;;
81195;SDS011;70671;43.888;-79.394;2023-07-31T05:40:18;5.72;;;1.80;;
81195;SDS011;70671;43.888;-79.394;2023-07-31T05:42:44;6.25;;;1.67;;
81195;SDS011;70671;43.888;-79.394;2023-07-31T05:45:10;4.30;;;1.58;;
81195;SDS011;70671;43.888;-79.394;2023-07-31T05:47:36;6.10;;;1.63;;
81195;SDS011;70671;43.888;-79.394;2023-07-31T05:50:02;2.75;;;1.30;;
81195;SDS011;70671;43.888;-79.394;2023-07-31T05:52:28;3.80;;;1.38;;
81195;SDS011;70671;43.888;-79.394;2023-07-31T05:54:54;6.43;;;1.80;;
81195;SDS011;70671;43.888;-79.394;2023-07-31T05:57:20;4.43;;;1.35;;
81195;SDS011;70671;43.888;-79.394;2023-07-31T05:59:46;4.15;;;1.40;;
81195;SDS011;70671;43.888;-79.394;2023-07-31T06:02:12;8.25;;;2.10;;
81195;SDS011;70671;43.888;-79.394;2023-07-31T06:04:38;6.25;;;1.98;;
81195;SDS011;70671;43.888;-79.394;2023-07-31T06:07:04;5.97;;;1.75;;
81195;SDS011;70671;43.888;-79.394;2023-07-31T06:09:30;5.80;;;1.63;;
81195;SDS011;70671;43.888;-79.394;2023-07-31T06:11:56;4.15;;;1.38;;
81195;SDS011;70671;43.888;-79.394;2023-07-31T06:14:22;4.68;;;1.88;;
81195;SDS011;70671;43.888;-79.394;2023-07-31T06:16:48;4.75;;;1.73;;
81195;SDS011;70671;43.888;-79.394;2023-07-31T06:19:21;4.78;;;1.67;;
81195;SDS011;70671;43.888;-79.394;2023-07-31T06:21:47;5.85;;;1.90;;
81195;SDS011;70671;43.888;-79.394;2023-07-31T06:24:13;3.97;;;1.63;;
81195;SDS011;70671;43.888;-79.394;2023-07-31T06:26:44;4.60;;;1.55;;
81195;SDS011;70671;43.888;-79.394;2023-07-31T06:29:10;4.30;;;1.80;;
81195;SDS011;70671;43.888;-79.394;2023-07-31T06:31:36;7.25;;;1.70;;
81195;SDS011;70671;43.888;-79.394;2023-07-31T06:34:02;6.25;;;1.70;;
81195;SDS011;70671;43.888;-79.394;2023-07-31T06:36:28;4.65;;;1.85;;
81195;SDS011;70671;43.888;-79.394;2023-07-31T06:38:54;4.95;;;1.77;;
81195;SDS011;70671;43.888;-79.394;2023-07-31T06:41:19;4.35;;;1.75;;
81195;SDS011;70671;43.888;-79.394;2023-07-31T06:43:45;4.43;;;2.03;;
81195;SDS011;70671;43.888;-79.394;2023-07-31T06:46:11;4.75;;;1.50;;
81195;SDS011;70671;43.888;-79.394;2023-07-31T06:48:37;3.35;;;1.45;;
81195;SDS011;70671;43.888;-79.394;2023-07-31T06:51:03;3.35;;;1.55;;
81195;SDS011;70671;43.888;-79.394;2023-07-31T06:53:29;4.28;;;1.70;;
81195;SDS011;70671;43.888;-79.394;2023-07-31T06:55:55;5.03;;;1.58;;
81195;SDS011;70671;43.888;-79.394;2023-07-31T06:58:21;4.10;;;1.58;;
81195;SDS011;70671;43.888;-79.394;2023-07-31T07:00:47;4.13;;;1.63;;
81195;SDS011;70671;43.888;-79.394;2023-07-31T07:03:16;4.25;;;1.50;;
81195;SDS011;70671;43.888;-79.394;2023-07-31T07:05:45;3.65;;;1.45;;
81195;SDS011;70671;43.888;-79.394;2023-07-31T07:08:11;4.75;;;1.70;;
81195;SDS011;70671;43.888;-79.394;2023-07-31T07:10:37;4.90;;;1.65;;
81195;SDS011;70671;43.888;-79.394;2023-07-31T07:13:03;3.30;;;1.30;;
81195;SDS011;70671;43.888;-79.394;2023-07-31T07:15:29;3.20;;;1.40;;
81195;SDS011;70671;43.888;-79.394;2023-07-31T07:17:55;4.38;;;1.65;;
81195;SDS011;70671;43.888;-79.394;2023-07-31T07:20:28;4.55;;;2.00;;
81195;SDS011;70671;43.888;-79.394;2023-07-31T07:22:54;4.80;;;1.80;;
81195;SDS011;70671;43.888;-79.394;2023-07-31T07:25:20;3.53;;;1.60;;
81195;SDS011;70671;43.888;-79.394;2023-07-31T07:27:46;5.05;;;1.65;;
81195;SDS011;70671;43.888;-79.394;2023-07-31T07:30:12;3.60;;;1.40;;
81195;SDS011;70671;43.888;-79.394;2023-07-31T07:32:39;4.85;;;2.08;;
81195;SDS011;70671;43.888;-79.394;2023-07-31T07:35:05;7.32;;;1.80;;
81195;SDS011;70671;43.888;-79.394;2023-07-31T07:37:32;5.30;;;1.70;;
81195;SDS011;70671;43.888;-79.394;2023-07-31T07:39:59;3.90;;;1.63;;
81195;SDS011;70671;43.888;-79.394;2023-07-31T07:42:25;2.45;;;1.05;;
81195;SDS011;70671;43.888;-79.394;2023-07-31T07:44:51;4.47;;;1.67;;
81195;SDS011;70671;43.888;-79.394;2023-07-31T07:47:17;3.55;;;1.52;;
81195;SDS011;70671;43.888;-79.394;2023-07-31T07:49:43;5.95;;;2.10;;
81195;SDS011;70671;43.888;-79.394;2023-07-31T07:52:09;4.63;;;1.80;;
81195;SDS011;70671;43.888;-79.394;2023-07-31T07:54:35;5.25;;;1.52;;
81195;SDS011;70671;43.888;-79.394;2023-07-31T07:57:01;3.50;;;1.50;;
81195;SDS011;70671;43.888;-79.394;2023-07-31T07:59:26;4.35;;;1.90;;
81195;SDS011;70671;43.888;-79.394;2023-07-31T08:01:52;3.42;;;1.60;;
81195;SDS011;70671;43.888;-79.394;2023-07-31T08:04:18;4.35;;;1.63;;
81195;SDS011;70671;43.888;-79.394;2023-07-31T08:06:44;4.63;;;1.80;;
81195;SDS011;70671;43.888;-79.394;2023-07-31T08:09:10;3.30;;;1.52;;
81195;SDS011;70671;43.888;-79.394;2023-07-31T08:11:36;4.55;;;1.65;;
81195;SDS011;70671;43.888;-79.394;2023-07-31T08:14:02;4.47;;;1.88;;
81195;SDS011;70671;43.888;-79.394;2023-07-31T08:16:28;7.20;;;1.80;;
81195;SDS011;70671;43.888;-79.394;2023-07-31T08:18:54;5.18;;;1.73;;
81195;SDS011;70671;43.888;-79.394;2023-07-31T08:21:21;3.60;;;1.60;;
81195;SDS011;70671;43.888;-79.394;2023-07-31T08:23:47;3.65;;;1.63;;
81195;SDS011;70671;43.888;-79.394;2023-07-31T08:26:16;5.20;;;2.25;;
81195;SDS011;70671;43.888;-79.394;2023-07-31T08:31:09;4.07;;;1.40;;
81195;SDS011;70671;43.888;-79.394;2023-07-31T08:33:36;6.57;;;1.90;;
81195;SDS011;70671;43.888;-79.394;2023-07-31T08:36:02;4.18;;;1.63;;
81195;SDS011;70671;43.888;-79.394;2023-07-31T08:38:29;4.82;;;1.48;;
81195;SDS011;70671;43.888;-79.394;2023-07-31T08:40:56;5.25;;;1.88;;
81195;SDS011;70671;43.888;-79.394;2023-07-31T08:43:24;5.15;;;1.85;;
81195;SDS011;70671;43.888;-79.394;2023-07-31T08:45:52;4.82;;;1.73;;
81195;SDS011;70671;43.888;-79.394;2023-07-31T08:48:19;3.88;;;1.77;;
81195;SDS011;70671;43.888;-79.394;2023-07-31T08:50:46;4.30;;;1.73;;
81195;SDS011;70671;43.888;-79.394;2023-07-31T08:53:12;4.97;;;1.80;;
81195;SDS011;70671;43.888;-79.394;2023-07-31T08:55:38;4.78;;;1.52;;
81195;SDS011;70671;43.888;-79.394;2023-07-31T08:58:05;4.25;;;1.70;;
81195;SDS011;70671;43.888;-79.394;2023-07-31T09:00:32;4.93;;;1.75;;
81195;SDS011;70671;43.888;-79.394;2023-07-31T09:03:17;4.80;;;1.98;;
81195;SDS011;70671;43.888;-79.394;2023-07-31T09:05:44;5.78;;;2.08;;
81195;SDS011;70671;43.888;-79.394;2023-07-31T09:08:12;5.13;;;1.60;;
81195;SDS011;70671;43.888;-79.394;2023-07-31T09:10:41;3.78;;;1.52;;
81195;SDS011;70671;43.888;-79.394;2023-07-31T09:13:08;6.57;;;2.20;;
81195;SDS011;70671;43.888;-79.394;2023-07-31T09:15:36;6.40;;;1.90;;
81195;SDS011;70671;43.888;-79.394;2023-07-31T09:18:03;6.50;;;2.03;;
81195;SDS011;70671;43.888;-79.394;2023-07-31T09:20:30;6.53;;;1.75;;
81195;SDS011;70671;43.888;-79.394;2023-07-31T09:23:04;8.75;;;2.67;;
81195;SDS011;70671;43.888;-79.394;2023-07-31T09:25:35;3.58;;;1.60;;
81195;SDS011;70671;43.888;-79.394;2023-07-31T09:28:03;7.55;;;2.30;;
81195;SDS011;70671;43.888;-79.394;2023-07-31T09:30:31;4.82;;;1.98;;
81195;SDS011;70671;43.888;-79.394;2023-07-31T09:33:09;5.05;;;2.20;;
81195;SDS011;70671;43.888;-79.394;2023-07-31T09:35:35;3.47;;;1.70;;
81195;SDS011;70671;43.888;-79.394;2023-07-31T09:38:06;5.13;;;1.80;;
81195;SDS011;70671;43.888;-79.394;2023-07-31T09:40:37;4.07;;;1.83;;
81195;SDS011;70671;43.888;-79.394;2023-07-31T09:43:06;3.50;;;1.60;;
81195;SDS011;70671;43.888;-79.394;2023-07-31T09:45:35;5.55;;;1.90;;
81195;SDS011;70671;43.888;-79.394;2023-07-31T09:48:03;5.15;;;2.20;;
81195;SDS011;70671;43.888;-79.394;2023-07-31T09:50:32;5.40;;;1.98;;
81195;SDS011;70671;43.888;-79.394;2023-07-31T09:52:58;6.47;;;2.17;;
81195;SDS011;70671;43.888;-79.394;2023-07-31T09:55:24;5.90;;;2.10;;
81195;SDS011;70671;43.888;-79.394;2023-07-31T09:57:50;5.82;;;1.92;;
81195;SDS011;70671;43.888;-79.394;2023-07-31T10:00:17;7.25;;;2.00;;
81195;SDS011;70671;43.888;-79.394;2023-07-31T10:02:45;5.70;;;1.83;;
81195;SDS011;70671;43.888;-79.394;2023-07-31T10:05:13;4.28;;;1.80;;
81195;SDS011;70671;43.888;-79.394;2023-07-31T10:07:42;5.45;;;2.13;;
81195;SDS011;70671;43.888;-79.394;2023-07-31T10:10:16;5.75;;;1.80;;
81195;SDS011;70671;43.888;-79.394;2023-07-31T10:12:43;5.72;;;2.03;;
81195;SDS011;70671;43.888;-79.394;2023-07-31T10:15:11;4.72;;;2.05;;
81195;SDS011;70671;43.888;-79.394;2023-07-31T10:17:37;4.68;;;2.10;;
81195;SDS011;70671;43.888;-79.394;2023-07-31T10:20:03;4.72;;;1.98;;
81195;SDS011;70671;43.888;-79.394;2023-07-31T10:22:31;5.28;;;2.30;;
81195;SDS011;70671;43.888;-79.394;2023-07-31T10:24:58;4.88;;;1.73;;
81195;SDS011;70671;43.888;-79.394;2023-07-31T10:27:25;5.22;;;1.80;;
81195;SDS011;70671;43.888;-79.394;2023-07-31T10:29:52;5.18;;;2.10;;
81195;SDS011;70671;43.888;-79.394;2023-07-31T10:32:21;5.68;;;2.20;;
81195;SDS011;70671;43.888;-79.394;2023-07-31T10:34:49;5.38;;;1.70;;
81195;SDS011;70671;43.888;-79.394;2023-07-31T10:37:20;5.95;;;1.83;;
81195;SDS011;70671;43.888;-79.394;2023-07-31T10:43:06;5.18;;;2.28;;
81195;SDS011;70671;43.888;-79.394;2023-07-31T10:45:37;5.53;;;2.13;;
81195;SDS011;70671;43.888;-79.394;2023-07-31T10:48:05;5.72;;;1.98;;
81195;SDS011;70671;43.888;-79.394;2023-07-31T10:50:57;7.32;;;2.33;;
81195;SDS011;70671;43.888;-79.394;2023-07-31T10:55:58;3.65;;;1.77;;
81195;SDS011;70671;43.888;-79.394;2023-07-31T10:58:29;6.22;;;2.20;;
81195;SDS011;70671;43.888;-79.394;2023-07-31T11:00:57;4.88;;;1.73;;
81195;SDS011;70671;43.888;-79.394;2023-07-31T11:03:25;6.28;;;2.97;;
81195;SDS011;70671;43.888;-79.394;2023-07-31T11:06:01;6.28;;;2.28;;
81195;SDS011;70671;43.888;-79.394;2023-07-31T11:08:31;4.93;;;1.95;;
81195;SDS011;70671;43.888;-79.394;2023-07-31T11:13:47;9.07;;;2.53;;
81195;SDS011;70671;43.888;-79.394;2023-07-31T11:16:15;6.50;;;2.38;;
81195;SDS011;70671;43.888;-79.394;2023-07-31T11:18:43;6.53;;;2.33;;
81195;SDS011;70671;43.888;-79.394;2023-07-31T11:21:13;7.63;;;2.35;;
81195;SDS011;70671;43.888;-79.394;2023-07-31T11:23:49;6.45;;;2.17;;
81195;SDS011;70671;43.888;-79.394;2023-07-31T11:26:17;5.43;;;2.22;;
81195;SDS011;70671;43.888;-79.394;2023-07-31T11:28:46;5.68;;;2.00;;
81195;SDS011;70671;43.888;-79.394;2023-07-31T11:31:13;4.82;;;2.05;;
81195;SDS011;70671;43.888;-79.394;2023-07-31T11:33:39;6.90;;;2.55;;
81195;SDS011;70671;43.888;-79.394;2023-07-31T11:36:05;6.03;;;2.47;;
81195;SDS011;70671;43.888;-79.394;2023-07-31T11:38:32;6.93;;;2.45;;
81195;SDS011;70671;43.888;-79.394;2023-07-31T11:41:03;5.78;;;2.25;;
81195;SDS011;70671;43.888;-79.394;2023-07-31T11:43:32;7.03;;;2.20;;
81195;SDS011;70671;43.888;-79.394;2023-07-31T11:45:59;6.97;;;2.20;;
81195;SDS011;70671;43.888;-79.394;2023-07-31T11:48:35;6.53;;;2.65;;
81195;SDS011;70671;43.888;-79.394;2023-07-31T11:51:03;5.95;;;2.60;;
81195;SDS011;70671;43.888;-79.394;2023-07-31T11:53:38;7.03;;;3.20;;
81195;SDS011;70671;43.888;-79.394;2023-07-31T11:56:10;4.95;;;2.03;;
81195;SDS011;70671;43.888;-79.394;2023-07-31T11:58:39;5.60;;;2.35;;
81195;SDS011;70671;43.888;-79.394;2023-07-31T12:01:08;5.45;;;2.20;;
81195;SDS011;70671;43.888;-79.394;2023-07-31T12:03:34;6.68;;;2.88;;
81195;SDS011;70671;43.888;-79.394;2023-07-31T12:06:01;9.02;;;2.65;;
81195;SDS011;70671;43.888;-79.394;2023-07-31T12:08:27;5.13;;;2.08;;
81195;SDS011;70671;43.888;-79.394;2023-07-31T12:11:01;6.60;;;2.65;;
81195;SDS011;70671;43.888;-79.394;2023-07-31T12:13:30;5.45;;;2.28;;
81195;SDS011;70671;43.888;-79.394;2023-07-31T12:15:57;7.50;;;2.20;;
81195;SDS011;70671;43.888;-79.394;2023-07-31T12:18:25;6.60;;;2.08;;
81195;SDS011;70671;43.888;-79.394;2023-07-31T12:20:54;7.43;;;2.60;;
81195;SDS011;70671;43.888;-79.394;2023-07-31T12:23:25;6.95;;;2.40;;
81195;SDS011;70671;43.888;-79.394;2023-07-31T12:26:05;6.03;;;2.42;;
81195;SDS011;70671;43.888;-79.394;2023-07-31T12:28:36;5.95;;;2.63;;
81195;SDS011;70671;43.888;-79.394;2023-07-31T12:31:04;5.75;;;2.00;;
81195;SDS011;70671;43.888;-79.394;2023-07-31T12:33:34;5.60;;;2.13;;
81195;SDS011;70671;43.888;-79.394;2023-07-31T12:38:28;5.55;;;2.50;;
81195;SDS011;70671;43.888;-79.394;2023-07-31T12:40:54;6.57;;;2.45;;
81195;SDS011;70671;43.888;-79.394;2023-07-31T12:43:20;6.20;;;2.00;;
81195;SDS011;70671;43.888;-79.394;2023-07-31T12:45:46;6.43;;;2.47;;
81195;SDS011;70671;43.888;-79.394;2023-07-31T12:48:12;6.38;;;2.70;;
81195;SDS011;70671;43.888;-79.394;2023-07-31T12:50:39;6.25;;;2.60;;
81195;SDS011;70671;43.888;-79.394;2023-07-31T12:53:05;6.35;;;2.65;;
81195;SDS011;70671;43.888;-79.394;2023-07-31T12:55:34;9.27;;;3.00;;
81195;SDS011;70671;43.888;-79.394;2023-07-31T13:00:27;6.15;;;2.20;;
81195;SDS011;70671;43.888;-79.394;2023-07-31T13:02:54;6.32;;;2.28;;
81195;SDS011;70671;43.888;-79.394;2023-07-31T13:05:20;5.45;;;2.53;;
81195;SDS011;70671;43.888;-79.394;2023-07-31T13:07:46;5.22;;;2.08;;
81195;SDS011;70671;43.888;-79.394;2023-07-31T13:10:13;8.20;;;2.97;;
81195;SDS011;70671;43.888;-79.394;2023-07-31T13:12:39;7.32;;;2.65;;
81195;SDS011;70671;43.888;-79.394;2023-07-31T13:15:06;5.68;;;2.28;;
81195;SDS011;70671;43.888;-79.394;2023-07-31T13:17:32;6.07;;;2.15;;
81195;SDS011;70671;43.888;-79.394;2023-07-31T13:19:58;5.78;;;2.58;;
81195;SDS011;70671;43.888;-79.394;2023-07-31T13:22:25;6.85;;;2.80;;
81195;SDS011;70671;43.888;-79.394;2023-07-31T13:24:51;5.50;;;1.75;;
81195;SDS011;70671;43.888;-79.394;2023-07-31T13:27:18;11.30;;;2.85;;
81195;SDS011;70671;43.888;-79.394;2023-07-31T13:29:46;5.97;;;2.40;;
81195;SDS011;70671;43.888;-79.394;2023-07-31T13:32:16;8.02;;;2.88;;
81195;SDS011;70671;43.888;-79.394;2023-07-31T13:34:43;6.93;;;2.55;;
81195;SDS011;70671;43.888;-79.394;2023-07-31T13:37:09;5.00;;;2.03;;
81195;SDS011;70671;43.888;-79.394;2023-07-31T13:39:35;6.72;;;2.55;;
81195;SDS011;70671;43.888;-79.394;2023-07-31T13:42:02;7.80;;;2.47;;
81195;SDS011;70671;43.888;-79.394;2023-07-31T13:44:31;6.25;;;2.40;;
81195;SDS011;70671;43.888;-79.394;2023-07-31T13:46:59;5.63;;;2.30;;
81195;SDS011;70671;43.888;-79.394;2023-07-31T13:49:25;6.65;;;2.13;;
81195;SDS011;70671;43.888;-79.394;2023-07-31T13:51:52;6.43;;;2.40;;
81195;SDS011;70671;43.888;-79.394;2023-07-31T13:54:18;5.97;;;2.47;;
81195;SDS011;70671;43.888;-79.394;2023-07-31T13:56:44;4.68;;;1.80;;
81195;SDS011;70671;43.888;-79.394;2023-07-31T13:59:10;6.88;;;2.70;;
81195;SDS011;70671;43.888;-79.394;2023-07-31T14:01:37;7.05;;;2.40;;
81195;SDS011;70671;43.888;-79.394;2023-07-31T14:04:03;8.27;;;2.30;;
81195;SDS011;70671;43.888;-79.394;2023-07-31T14:06:29;6.63;;;2.45;;
81195;SDS011;70671;43.888;-79.394;2023-07-31T14:08:55;7.72;;;2.72;;
81195;SDS011;70671;43.888;-79.394;2023-07-31T14:11:24;6.20;;;2.38;;
81195;SDS011;70671;43.888;-79.394;2023-07-31T14:13:50;5.70;;;2.20;;
81195;SDS011;70671;43.888;-79.394;2023-07-31T14:16:16;6.57;;;2.30;;
81195;SDS011;70671;43.888;-79.394;2023-07-31T14:18:42;5.15;;;1.90;;
81195;SDS011;70671;43.888;-79.394;2023-07-31T14:21:10;6.47;;;2.28;;
81195;SDS011;70671;43.888;-79.394;2023-07-31T14:23:37;6.25;;;2.30;;
81195;SDS011;70671;43.888;-79.394;2023-07-31T14:26:03;6.32;;;2.30;;
81195;SDS011;70671;43.888;-79.394;2023-07-31T14:28:29;6.07;;;2.47;;
81195;SDS011;70671;43.888;-79.394;2023-07-31T14:30:55;4.68;;;2.20;;
81195;SDS011;70671;43.888;-79.394;2023-07-31T14:33:21;5.50;;;2.47;;
81195;SDS011;70671;43.888;-79.394;2023-07-31T14:35:47;5.63;;;2.20;;
81195;SDS011;70671;43.888;-79.394;2023-07-31T14:38:13;7.43;;;2.70;;
81195;SDS011;70671;43.888;-79.394;2023-07-31T14:40:39;6.18;;;2.40;;
81195;SDS011;70671;43.888;-79.394;2023-07-31T14:43:05;6.38;;;2.75;;
81195;SDS011;70671;43.888;-79.394;2023-07-31T14:45:31;5.75;;;2.33;;
81195;SDS011;70671;43.888;-79.394;2023-07-31T14:47:57;5.78;;;2.70;;